createdAt,value
2023-05-19T00:00:05.026Z,74.53
2023-05-19T00:01:05.027Z,74.43
2023-05-19T00:02:05.050Z,74.43
2023-05-19T00:03:05.224Z,74.53
2023-05-19T00:04:04.967Z,75.04
2023-05-19T00:05:05.905Z,74.84
2023-05-19T00:06:04.948Z,74.32
2023-05-19T00:07:04.961Z,74.43
2023-05-19T00:08:04.914Z,74.43
2023-05-19T00:09:04.948Z,74.53
2023-05-19T00:10:04.903Z,74.53
2023-05-19T00:11:04.922Z,73.91
2023-05-19T00:12:04.876Z,73.71
2023-05-19T00:13:04.912Z,73.40
2023-05-19T00:14:04.872Z,73.19
2023-05-19T00:15:04.859Z,73.10
2023-05-19T00:16:04.872Z,72.99
2023-05-19T00:17:04.855Z,73.06
2023-05-19T00:18:04.823Z,72.96
2023-05-19T00:19:04.874Z,72.75
2023-05-19T00:20:04.773Z,72.55
2023-05-19T00:21:04.792Z,72.34
2023-05-19T00:22:04.761Z,72.14
2023-05-19T00:23:04.798Z,71.93
2023-05-19T00:24:04.749Z,71.83
2023-05-19T00:25:04.762Z,71.83
2023-05-19T00:26:04.706Z,71.93
2023-05-19T00:27:04.721Z,72.14
2023-05-19T00:28:04.716Z,72.03
2023-05-19T00:29:04.699Z,72.03
2023-05-19T00:30:04.683Z,72.24
2023-05-19T00:31:04.684Z,72.44
2023-05-19T00:32:04.667Z,72.44
2023-05-19T00:33:04.763Z,72.14
2023-05-19T00:34:04.660Z,72.24
2023-05-19T00:35:04.639Z,72.34
2023-05-19T00:36:04.594Z,72.24
2023-05-19T00:37:04.619Z,72.24
2023-05-19T00:38:04.589Z,72.44
2023-05-19T00:39:04.630Z,72.14
2023-05-19T00:40:04.566Z,71.76
2023-05-19T00:41:04.591Z,72.03
2023-05-19T00:42:04.565Z,71.73
2023-05-19T00:43:04.556Z,71.73
2023-05-19T00:44:04.544Z,71.86
2023-05-19T00:45:04.536Z,71.45
2023-05-19T00:46:04.497Z,71.66
2023-05-19T00:47:04.627Z,71.86
2023-05-19T00:48:04.537Z,71.97
2023-05-19T00:49:04.463Z,72.07
2023-05-19T00:50:04.456Z,72.17
2023-05-19T00:51:04.928Z,71.97
2023-05-19T00:52:04.439Z,71.97
2023-05-19T00:53:04.428Z,71.97
2023-05-19T00:54:04.424Z,71.97
2023-05-19T00:55:05.383Z,72.07
2023-05-19T00:56:04.366Z,72.17
2023-05-19T00:57:04.407Z,72.07
2023-05-19T00:58:04.355Z,72.07
2023-05-19T00:59:04.357Z,71.97
2023-05-19T01:00:04.331Z,71.97
2023-05-19T01:01:05.159Z,72.07
2023-05-19T01:02:06.283Z,72.17
2023-05-19T01:03:04.390Z,72.17
2023-05-19T01:04:04.392Z,72.27
2023-05-19T01:05:04.386Z,72.07
2023-05-19T01:06:04.276Z,72.27
2023-05-19T01:07:04.283Z,72.17
2023-05-19T01:08:04.279Z,72.17
2023-05-19T01:09:04.283Z,72.27
2023-05-19T01:10:04.221Z,72.38
2023-05-19T01:11:04.252Z,72.38
2023-05-19T01:12:04.211Z,72.48
2023-05-19T01:13:04.237Z,72.48
2023-05-19T01:14:04.197Z,72.61
2023-05-19T01:15:04.184Z,72.61
2023-05-19T01:16:04.190Z,72.72
2023-05-19T01:17:04.159Z,72.61
2023-05-19T01:18:04.185Z,72.82
2023-05-19T01:19:04.230Z,72.82
2023-05-19T01:20:04.101Z,72.92
2023-05-19T01:21:04.141Z,72.92
2023-05-19T01:22:04.114Z,72.92
2023-05-19T01:23:04.100Z,72.92
2023-05-19T01:24:04.087Z,73.02
2023-05-19T01:25:04.069Z,73.02
2023-05-19T01:26:04.046Z,72.92
2023-05-19T01:27:04.048Z,73.02
2023-05-19T01:28:04.024Z,73.02
2023-05-19T01:29:04.062Z,72.92
2023-05-19T01:30:03.985Z,73.13
2023-05-19T01:31:03.998Z,73.23
2023-05-19T01:32:04.018Z,73.23
2023-05-19T01:33:04.041Z,73.23
2023-05-19T01:34:03.980Z,73.23
2023-05-19T01:35:03.959Z,73.33
2023-05-19T01:36:03.937Z,73.23
2023-05-19T01:37:03.982Z,73.23
2023-05-19T01:38:03.929Z,73.13
2023-05-19T01:39:03.952Z,73.23
2023-05-19T01:40:03.925Z,73.23
2023-05-19T01:41:03.913Z,73.13
2023-05-19T01:42:03.886Z,73.44
2023-05-19T01:43:03.882Z,73.33
2023-05-19T01:44:03.851Z,73.54
2023-05-19T01:45:03.856Z,73.44
2023-05-19T01:46:03.870Z,73.23
2023-05-19T01:47:03.832Z,73.23
2023-05-19T01:48:03.806Z,73.33
2023-05-19T01:49:03.819Z,73.33
2023-05-19T01:50:03.804Z,73.44
2023-05-19T01:51:03.788Z,73.54
2023-05-19T01:52:03.766Z,73.88
2023-05-19T01:53:03.763Z,74.08
2023-05-19T01:54:03.758Z,74.40
2023-05-19T01:55:03.791Z,74.60
2023-05-19T01:56:03.718Z,74.70
2023-05-19T01:57:03.710Z,74.91
2023-05-19T01:58:03.708Z,75.11
2023-05-19T01:59:03.698Z,75.04
2023-05-19T02:00:03.698Z,75.04
2023-05-19T02:01:03.680Z,75.04
2023-05-19T02:02:03.680Z,75.04
2023-05-19T02:03:03.806Z,75.15
2023-05-19T02:04:03.738Z,75.15
2023-05-19T02:05:03.613Z,75.38
2023-05-19T02:06:03.880Z,75.70
2023-05-19T02:07:03.846Z,75.80
2023-05-19T02:08:03.927Z,75.80
2023-05-19T02:09:03.701Z,75.90
2023-05-19T02:10:03.606Z,76.10
2023-05-19T02:11:03.555Z,76.10
2023-05-19T02:12:03.893Z,75.90
2023-05-19T02:13:03.527Z,75.70
2023-05-19T02:14:03.561Z,75.70
2023-05-19T02:15:03.875Z,75.80
2023-05-19T02:16:04.007Z,75.90
2023-05-19T02:17:03.907Z,75.90
2023-05-19T02:18:03.926Z,76.00
2023-05-19T02:19:03.869Z,76.21
2023-05-19T02:20:03.924Z,76.42
2023-05-19T02:21:03.889Z,76.42
2023-05-19T02:22:03.452Z,76.62
2023-05-19T02:23:03.416Z,76.51
2023-05-19T02:24:03.891Z,76.35
2023-05-19T02:25:03.397Z,76.35
2023-05-19T02:26:03.410Z,76.45
2023-05-19T02:27:03.415Z,76.45
2023-05-19T02:28:03.403Z,76.55
2023-05-19T02:29:03.826Z,76.97
2023-05-19T02:30:03.377Z,77.17
2023-05-19T02:31:03.323Z,77.41
2023-05-19T02:32:03.445Z,77.51
2023-05-19T02:33:03.363Z,77.72
2023-05-19T02:34:03.356Z,77.96
2023-05-19T02:35:03.331Z,78.27
2023-05-19T02:36:03.384Z,78.37
2023-05-19T02:37:03.375Z,78.37
2023-05-19T02:38:03.351Z,78.58
2023-05-19T02:39:03.216Z,78.68
2023-05-19T02:40:03.364Z,78.47
2023-05-19T02:41:03.228Z,78.37
2023-05-19T02:42:03.224Z,78.47
2023-05-19T02:43:03.206Z,78.58
2023-05-19T02:44:03.197Z,78.68
2023-05-19T02:45:03.216Z,78.68
2023-05-19T02:46:03.209Z,78.78
2023-05-19T02:47:03.199Z,78.78
2023-05-19T02:48:03.213Z,78.78
2023-05-19T02:49:03.107Z,78.68
2023-05-19T02:50:03.154Z,78.68
2023-05-19T02:51:03.109Z,78.68
2023-05-19T02:52:03.131Z,78.78
2023-05-19T02:53:03.110Z,78.58
2023-05-19T02:54:03.096Z,78.58
2023-05-19T02:55:03.056Z,78.58
2023-05-19T02:56:03.089Z,78.47
2023-05-19T02:57:03.050Z,78.72
2023-05-19T02:58:03.055Z,78.82
2023-05-19T02:59:03.004Z,78.82
2023-05-19T03:00:03.050Z,78.82
2023-05-19T03:01:02.986Z,78.82
2023-05-19T03:02:03.080Z,78.82
2023-05-19T03:03:03.204Z,78.82
2023-05-19T03:04:03.082Z,78.96
2023-05-19T03:05:02.949Z,79.06
2023-05-19T03:06:02.955Z,79.27
2023-05-19T03:07:02.953Z,79.47
2023-05-19T03:08:02.940Z,79.68
2023-05-19T03:09:02.913Z,79.68
2023-05-19T03:10:02.928Z,79.58
2023-05-19T03:11:02.876Z,79.47
2023-05-19T03:12:02.909Z,79.47
2023-05-19T03:13:02.866Z,79.68
2023-05-19T03:14:02.860Z,79.68
2023-05-19T03:15:02.847Z,79.68
2023-05-19T03:16:02.909Z,79.68
2023-05-19T03:17:02.842Z,79.68
2023-05-19T03:18:02.912Z,79.58
2023-05-19T03:19:02.872Z,79.58
2023-05-19T03:20:02.788Z,79.58
2023-05-19T03:21:02.784Z,79.58
2023-05-19T03:22:02.815Z,79.68
2023-05-19T03:23:02.747Z,79.88
2023-05-19T03:24:02.806Z,79.88
2023-05-19T03:25:02.715Z,79.88
2023-05-19T03:26:02.727Z,79.88
2023-05-19T03:27:02.728Z,79.99
2023-05-19T03:28:02.721Z,79.88
2023-05-19T03:29:02.685Z,79.79
2023-05-19T03:30:05.723Z,79.88
2023-05-19T03:31:02.666Z,79.99
2023-05-19T03:32:02.732Z,80.09
2023-05-19T03:33:02.837Z,80.02
2023-05-19T03:34:02.677Z,80.02
2023-05-19T03:35:02.631Z,80.02
2023-05-19T03:36:02.636Z,80.13
2023-05-19T03:37:02.595Z,80.13
2023-05-19T03:38:02.604Z,80.13
2023-05-19T03:39:02.595Z,80.23
2023-05-19T03:40:02.669Z,80.33
2023-05-19T03:41:02.552Z,80.33
2023-05-19T03:42:02.568Z,80.33
2023-05-19T03:43:02.529Z,80.44
2023-05-19T03:44:02.553Z,80.33
2023-05-19T03:45:02.516Z,80.23
2023-05-19T03:46:02.621Z,80.23
2023-05-19T03:47:02.512Z,80.02
2023-05-19T03:48:02.553Z,79.93
2023-05-19T03:49:02.491Z,79.93
2023-05-19T03:50:02.481Z,80.13
2023-05-19T03:51:02.474Z,80.13
2023-05-19T03:52:02.476Z,79.93
2023-05-19T03:53:02.418Z,79.93
2023-05-19T03:54:02.467Z,79.93
2023-05-19T03:55:02.402Z,80.02
2023-05-19T03:56:02.436Z,79.93
2023-05-19T03:57:02.382Z,79.93
2023-05-19T03:58:02.387Z,80.13
2023-05-19T03:59:02.350Z,79.99
2023-05-19T04:00:02.390Z,79.99
2023-05-19T04:01:02.340Z,79.88
2023-05-19T04:02:02.391Z,79.88
2023-05-19T04:03:02.459Z,79.88
2023-05-19T04:04:02.392Z,79.88
2023-05-19T04:05:02.317Z,79.88
2023-05-19T04:06:02.322Z,79.79
2023-05-19T04:07:02.268Z,79.79
2023-05-19T04:08:02.288Z,79.79
2023-05-19T04:09:02.243Z,79.88
2023-05-19T04:10:02.268Z,79.79
2023-05-19T04:11:02.234Z,79.68
2023-05-19T04:12:02.235Z,79.79
2023-05-19T04:13:02.213Z,79.68
2023-05-19T04:14:02.239Z,79.37
2023-05-19T04:15:02.194Z,79.37
2023-05-19T04:16:02.221Z,79.37
2023-05-19T04:17:02.150Z,79.37
2023-05-19T04:18:02.196Z,79.37
2023-05-19T04:19:02.200Z,79.03
2023-05-19T04:20:02.199Z,78.61
2023-05-19T04:21:02.127Z,78.00
2023-05-19T04:22:02.154Z,77.89
2023-05-19T04:23:02.134Z,77.89
2023-05-19T04:24:02.102Z,77.69
2023-05-19T04:25:02.088Z,77.45
2023-05-19T04:26:02.074Z,77.14
2023-05-19T04:27:02.046Z,76.83
2023-05-19T04:28:02.066Z,76.14
2023-05-19T04:29:02.058Z,74.77
2023-05-19T04:30:02.052Z,73.06
2023-05-19T04:31:02.019Z,71.90
2023-05-19T04:32:02.010Z,71.15
2023-05-19T04:33:02.032Z,70.70
2023-05-19T04:34:01.988Z,69.65
2023-05-19T04:35:02.007Z,68.69
2023-05-19T04:36:01.964Z,67.19
2023-05-19T04:37:01.934Z,66.14
2023-05-19T04:38:01.954Z,65.73
2023-05-19T04:39:01.926Z,66.07
2023-05-19T04:40:01.972Z,66.72
2023-05-19T04:41:01.902Z,68.01
2023-05-19T04:42:01.909Z,69.17
2023-05-19T04:43:01.860Z,69.98
2023-05-19T04:44:01.892Z,70.64
2023-05-19T04:45:01.853Z,70.16
2023-05-19T04:46:01.884Z,68.35
2023-05-19T04:47:01.917Z,66.93
2023-05-19T04:48:01.892Z,64.36
2023-05-19T04:49:01.817Z,61.82
2023-05-19T04:50:01.834Z,60.00
2023-05-19T04:51:01.779Z,58.35
2023-05-19T04:52:01.805Z,58.04
2023-05-19T04:53:01.798Z,57.84
2023-05-19T04:54:01.768Z,58.48
2023-05-19T04:55:01.813Z,59.78
2023-05-19T04:56:01.779Z,61.04
2023-05-19T04:57:01.729Z,62.21
2023-05-19T04:58:01.728Z,63.40
2023-05-19T04:59:01.705Z,64.58
2023-05-19T05:00:01.745Z,66.04
2023-05-19T05:01:01.654Z,67.10
2023-05-19T05:02:01.752Z,67.71
2023-05-19T05:03:01.712Z,67.91
2023-05-19T05:04:01.720Z,67.91
2023-05-19T05:05:01.640Z,67.91
2023-05-19T05:06:01.619Z,68.01
2023-05-19T05:07:01.586Z,68.55
2023-05-19T05:08:01.653Z,68.66
2023-05-19T05:09:01.602Z,68.84
2023-05-19T05:10:01.625Z,68.76
2023-05-19T05:11:01.564Z,68.66
2023-05-19T05:12:01.565Z,68.76
2023-05-19T05:13:03.490Z,69.07
2023-05-19T05:14:01.685Z,69.27
2023-05-19T05:15:01.526Z,69.27
2023-05-19T05:16:01.613Z,69.38
2023-05-19T05:17:01.491Z,69.27
2023-05-19T05:18:01.529Z,69.38
2023-05-19T05:19:01.729Z,69.48
2023-05-19T05:20:01.496Z,69.89
2023-05-19T05:21:01.430Z,70.09
2023-05-19T05:22:01.462Z,70.20
2023-05-19T05:23:01.411Z,70.50
2023-05-19T05:24:01.496Z,70.43
2023-05-19T05:25:01.415Z,70.40
2023-05-19T05:26:01.408Z,70.50
2023-05-19T05:27:01.376Z,70.50
2023-05-19T05:28:02.319Z,70.29
2023-05-19T05:29:01.346Z,70.50
2023-05-19T05:30:01.353Z,70.61
2023-05-19T05:31:01.303Z,70.50
2023-05-19T05:32:01.422Z,70.71
2023-05-19T05:33:01.400Z,71.01
2023-05-19T05:34:01.325Z,70.81
2023-05-19T05:35:01.269Z,70.67
2023-05-19T05:36:01.295Z,70.88
2023-05-19T05:37:01.262Z,70.98
2023-05-19T05:38:01.248Z,71.19
2023-05-19T05:39:01.223Z,70.64
2023-05-19T05:40:01.239Z,70.13
2023-05-19T05:41:01.213Z,70.13
2023-05-19T05:42:01.216Z,69.72
2023-05-19T05:43:01.182Z,69.72
2023-05-19T05:44:01.188Z,69.93
2023-05-19T05:45:01.158Z,70.03
2023-05-19T05:46:01.287Z,70.13
2023-05-19T05:47:01.130Z,70.13
2023-05-19T05:48:01.238Z,70.54
2023-05-19T05:49:01.165Z,70.84
2023-05-19T05:50:01.140Z,70.13
2023-05-19T05:51:01.096Z,70.75
2023-05-19T05:52:06.440Z,70.95
2023-05-19T05:53:02.082Z,70.71
2023-05-19T05:54:03.090Z,69.59
2023-05-19T05:55:01.055Z,69.82
2023-05-19T05:56:01.076Z,70.23
2023-05-19T05:57:01.038Z,70.43
2023-05-19T05:58:01.042Z,69.69
2023-05-19T05:59:01.010Z,69.28
2023-05-19T06:00:01.017Z,69.59
2023-05-19T06:01:01.000Z,68.87
2023-05-19T06:02:01.098Z,69.28
2023-05-19T06:03:01.083Z,69.28
2023-05-19T06:04:00.968Z,69.11
2023-05-19T06:05:01.003Z,69.62
2023-05-19T06:06:01.066Z,69.24
2023-05-19T06:07:00.997Z,69.24
2023-05-19T06:08:00.977Z,69.34
2023-05-19T06:09:00.880Z,69.48
2023-05-19T06:10:00.948Z,69.65
2023-05-19T06:11:00.893Z,69.75
2023-05-19T06:12:00.912Z,69.11
2023-05-19T06:13:00.865Z,68.87
2023-05-19T06:14:00.864Z,68.87
2023-05-19T06:15:00.854Z,68.02
2023-05-19T06:16:02.026Z,67.13
2023-05-19T06:17:00.835Z,67.98
2023-05-19T06:18:00.908Z,68.70
2023-05-19T06:19:00.854Z,69.01
2023-05-19T06:20:00.783Z,68.87
2023-05-19T06:21:00.820Z,68.97
2023-05-19T06:22:00.771Z,68.57
2023-05-19T06:23:00.781Z,68.77
2023-05-19T06:24:00.737Z,67.95
2023-05-19T06:25:00.722Z,68.26
2023-05-19T06:26:02.697Z,67.65
2023-05-19T06:27:00.723Z,68.08
2023-05-19T06:28:00.688Z,68.49
2023-05-19T06:29:00.702Z,68.60
2023-05-19T06:30:00.705Z,68.39
2023-05-19T06:31:00.747Z,68.05
2023-05-19T06:32:00.624Z,67.95
2023-05-19T06:33:00.742Z,67.82
2023-05-19T06:34:02.608Z,68.02
2023-05-19T06:35:00.631Z,67.30
2023-05-19T06:36:00.636Z,67.18
2023-05-19T06:37:02.709Z,66.77
2023-05-19T06:38:00.583Z,66.36
2023-05-19T06:39:02.584Z,66.42
2023-05-19T06:40:00.536Z,66.05
2023-05-19T06:41:00.553Z,66.97
2023-05-19T06:42:00.540Z,66.86
2023-05-19T06:43:00.528Z,66.90
2023-05-19T06:44:00.477Z,66.90
2023-05-19T06:45:00.513Z,67.13
2023-05-19T06:46:00.487Z,67.75
2023-05-19T06:47:00.536Z,67.65
2023-05-19T06:48:00.577Z,67.82
2023-05-19T06:49:00.487Z,67.51
2023-05-19T06:50:01.083Z,67.71
2023-05-19T06:51:00.508Z,67.61
2023-05-19T06:52:00.444Z,67.61
2023-05-19T06:53:00.482Z,67.41
2023-05-19T06:54:00.378Z,67.58
2023-05-19T06:55:00.393Z,67.68
2023-05-19T06:56:00.657Z,67.68
2023-05-19T06:57:00.366Z,67.89
2023-05-19T06:58:00.352Z,67.76
2023-05-19T06:59:00.351Z,67.45
2023-05-19T07:00:00.302Z,67.14
2023-05-19T07:01:00.352Z,67.14
2023-05-19T07:02:00.430Z,67.04
2023-05-19T07:03:00.456Z,67.04
2023-05-19T07:04:00.382Z,67.14
2023-05-19T07:05:00.313Z,66.80
2023-05-19T07:06:00.237Z,67.11
2023-05-19T07:07:00.252Z,67.14
2023-05-19T07:08:00.258Z,66.94
2023-05-19T07:09:00.246Z,67.65
2023-05-19T07:10:00.191Z,67.85
2023-05-19T07:11:00.210Z,67.76
2023-05-19T07:12:00.667Z,68.16
2023-05-19T07:13:00.230Z,67.96
2023-05-19T07:14:00.189Z,67.65
2023-05-19T07:15:00.172Z,67.72
2023-05-19T07:16:00.256Z,67.62
2023-05-19T07:17:00.145Z,67.41
2023-05-19T07:18:00.247Z,67.11
2023-05-19T07:19:00.304Z,67.01
2023-05-19T07:20:00.137Z,66.88
2023-05-19T07:21:00.144Z,66.77
2023-05-19T07:22:00.066Z,66.97
2023-05-19T07:23:00.146Z,66.36
2023-05-19T07:24:00.087Z,66.47
2023-05-19T07:25:00.061Z,66.47
2023-05-19T07:26:00.071Z,66.67
2023-05-19T07:27:00.043Z,66.64
2023-05-19T07:28:00.028Z,66.33
2023-05-19T07:29:02.061Z,66.13
2023-05-19T07:29:59.967Z,66.23
2023-05-19T07:31:00.003Z,66.23
2023-05-19T07:32:01.518Z,66.13
2023-05-19T07:33:00.017Z,65.89
2023-05-19T07:33:59.952Z,65.66
2023-05-19T07:35:00.755Z,66.07
2023-05-19T07:35:59.948Z,65.83
2023-05-19T07:37:00.287Z,65.50
2023-05-19T07:37:59.895Z,65.09
2023-05-19T07:38:59.926Z,64.18
2023-05-19T07:39:59.873Z,63.74
2023-05-19T07:40:59.984Z,63.94
2023-05-19T07:41:59.841Z,63.64
2023-05-19T07:42:59.898Z,63.51
2023-05-19T07:43:59.828Z,62.90
2023-05-19T07:44:59.832Z,63.30
2023-05-19T07:45:59.858Z,62.97
2023-05-19T07:46:59.801Z,62.36
2023-05-19T07:47:59.861Z,62.26
2023-05-19T07:48:59.794Z,62.26
2023-05-19T07:49:59.764Z,61.32
2023-05-19T07:50:59.770Z,61.32
2023-05-19T07:51:59.729Z,61.32
2023-05-19T07:52:59.746Z,61.21
2023-05-19T07:53:59.713Z,60.91
2023-05-19T07:54:59.724Z,58.27
2023-05-19T07:55:59.669Z,58.54
2023-05-19T07:56:59.690Z,58.65
2023-05-19T07:57:59.658Z,58.95
2023-05-19T07:58:59.690Z,59.16
2023-05-19T07:59:59.653Z,58.82
2023-05-19T08:00:59.677Z,58.72
2023-05-19T08:01:59.638Z,58.92
2023-05-19T08:02:59.661Z,58.42
2023-05-19T08:03:59.739Z,58.01
2023-05-19T08:04:59.590Z,59.53
2023-05-19T08:05:59.584Z,59.91
2023-05-19T08:06:59.592Z,58.09
2023-05-19T08:08:00.493Z,57.78
2023-05-19T08:08:59.545Z,58.69
2023-05-19T08:09:59.558Z,58.49
2023-05-19T08:10:59.545Z,58.39
2023-05-19T08:11:59.492Z,58.36
2023-05-19T08:12:59.549Z,56.97
2023-05-19T08:13:59.504Z,56.57
2023-05-19T08:15:01.305Z,57.07
2023-05-19T08:15:59.658Z,56.95
2023-05-19T08:16:59.456Z,57.55
2023-05-19T08:17:59.449Z,57.96
2023-05-19T08:18:59.478Z,58.87
2023-05-19T08:19:59.433Z,58.47
2023-05-19T08:20:59.443Z,57.55
2023-05-19T08:21:59.386Z,56.41
2023-05-19T08:22:59.406Z,56.03
2023-05-19T08:23:59.384Z,56.61
2023-05-19T08:24:59.416Z,56.82
2023-05-19T08:25:59.387Z,56.92
2023-05-19T08:26:59.374Z,56.28
2023-05-19T08:27:59.332Z,55.07
2023-05-19T08:28:59.350Z,54.97
2023-05-19T08:29:59.333Z,55.37
2023-05-19T08:30:59.377Z,55.47
2023-05-19T08:31:59.281Z,54.76
2023-05-19T08:32:59.342Z,55.37
2023-05-19T08:33:59.327Z,54.76
2023-05-19T08:34:59.284Z,54.16
2023-05-19T08:35:59.244Z,54.26
2023-05-19T08:36:59.262Z,54.66
2023-05-19T08:37:59.216Z,54.66
2023-05-19T08:38:59.235Z,54.86
2023-05-19T08:39:59.227Z,54.46
2023-05-19T08:40:59.223Z,54.36
2023-05-19T08:41:59.191Z,54.56
2023-05-19T08:42:59.184Z,54.76
2023-05-19T08:43:59.163Z,54.74
2023-05-19T08:44:59.152Z,54.23
2023-05-19T08:45:59.113Z,53.93
2023-05-19T08:46:59.217Z,53.72
2023-05-19T08:47:59.162Z,53.93
2023-05-19T08:48:59.135Z,54.23
2023-05-19T08:49:59.074Z,53.83
2023-05-19T08:50:59.099Z,52.92
2023-05-19T08:51:59.059Z,53.70
2023-05-19T08:52:59.091Z,53.40
2023-05-19T08:54:00.984Z,53.30
2023-05-19T08:54:59.056Z,53.50
2023-05-19T08:55:59.049Z,53.19
2023-05-19T08:56:59.015Z,53.50
2023-05-19T08:57:58.995Z,53.90
2023-05-19T08:58:59.007Z,53.90
2023-05-19T08:59:58.974Z,53.50
2023-05-19T09:00:59.060Z,52.99
2023-05-19T09:01:58.966Z,53.17
2023-05-19T09:03:05.918Z,52.36
2023-05-19T09:04:00.068Z,52.46
2023-05-19T09:04:59.096Z,51.65
2023-05-19T09:05:58.949Z,51.53
2023-05-19T09:06:58.944Z,50.32
2023-05-19T09:07:58.888Z,50.62
2023-05-19T09:08:58.896Z,51.83
2023-05-19T09:09:59.554Z,50.82
2023-05-19T09:10:58.869Z,50.32
2023-05-19T09:11:58.863Z,49.91
2023-05-19T09:12:58.905Z,49.41
2023-05-19T09:13:58.850Z,49.81
2023-05-19T09:14:58.844Z,49.71
2023-05-19T09:15:58.797Z,49.61
2023-05-19T09:16:58.863Z,49.08
2023-05-19T09:17:58.843Z,49.89
2023-05-19T09:18:58.825Z,48.68
2023-05-19T09:19:58.753Z,48.27
2023-05-19T09:20:58.752Z,48.37
2023-05-19T09:21:58.728Z,48.35
2023-05-19T09:22:58.741Z,48.35
2023-05-19T09:23:58.687Z,48.25
2023-05-19T09:24:58.744Z,48.25
2023-05-19T09:25:58.661Z,48.55
2023-05-19T09:27:00.208Z,47.95
2023-05-19T09:27:58.653Z,48.96
2023-05-19T09:28:58.688Z,48.83
2023-05-19T09:29:58.637Z,47.42
2023-05-19T09:30:58.672Z,47.92
2023-05-19T09:31:58.634Z,47.82
2023-05-19T09:32:58.711Z,47.72
2023-05-19T09:33:58.587Z,48.13
2023-05-19T09:34:59.573Z,48.43
2023-05-19T09:35:58.573Z,48.43
2023-05-19T09:36:58.588Z,48.93
2023-05-19T09:37:58.547Z,49.13
2023-05-19T09:38:58.565Z,49.66
2023-05-19T09:39:58.512Z,49.36
2023-05-19T09:40:58.531Z,48.65
2023-05-19T09:41:58.536Z,47.62
2023-05-19T09:42:58.586Z,48.02
2023-05-19T09:43:58.478Z,48.73
2023-05-19T09:44:58.524Z,49.13
2023-05-19T09:45:58.508Z,49.64
2023-05-19T09:46:58.534Z,48.45
2023-05-19T09:47:58.926Z,48.68
2023-05-19T09:48:58.479Z,49.38
2023-05-19T09:49:58.424Z,48.70
2023-05-19T09:50:58.428Z,49.71
2023-05-19T09:51:58.457Z,50.01
2023-05-19T09:52:58.394Z,50.09
2023-05-19T09:53:58.383Z,49.96
2023-05-19T09:54:58.372Z,50.07
2023-05-19T09:55:58.334Z,50.15
2023-05-19T09:56:58.374Z,50.22
2023-05-19T09:57:58.343Z,49.82
2023-05-19T09:58:58.317Z,48.83
2023-05-19T09:59:58.290Z,47.50
2023-05-19T10:00:58.309Z,47.40
2023-05-19T10:01:58.342Z,46.97
2023-05-19T10:02:58.331Z,46.57
2023-05-19T10:03:58.251Z,47.38
2023-05-19T10:04:58.333Z,47.55
2023-05-19T10:05:58.219Z,47.96
2023-05-19T10:06:58.227Z,46.85
2023-05-19T10:07:58.215Z,46.14
2023-05-19T10:08:58.220Z,46.45
2023-05-19T10:09:58.743Z,45.44
2023-05-19T10:10:58.242Z,45.24
2023-05-19T10:11:58.154Z,44.85
2023-05-19T10:12:58.164Z,45.56
2023-05-19T10:13:58.159Z,45.18
2023-05-19T10:14:58.162Z,45.78
2023-05-19T10:15:59.628Z,45.89
2023-05-19T10:16:58.269Z,46.57
2023-05-19T10:17:58.190Z,45.48
2023-05-19T10:18:58.208Z,45.06
2023-05-19T10:19:58.087Z,44.87
2023-05-19T10:20:58.497Z,45.89
2023-05-19T10:21:58.057Z,46.21
2023-05-19T10:22:58.080Z,46.29
2023-05-19T10:23:58.032Z,46.19
2023-05-19T10:24:58.038Z,46.17
2023-05-19T10:25:58.024Z,46.39
2023-05-19T10:26:58.041Z,47.19
2023-05-19T10:27:57.996Z,47.47
2023-05-19T10:28:58.033Z,46.97
2023-05-19T10:29:57.954Z,46.47
2023-05-19T10:30:57.999Z,47.66
2023-05-19T10:31:58.009Z,46.95
2023-05-19T10:32:57.963Z,46.85
2023-05-19T10:33:57.969Z,47.43
2023-05-19T10:34:57.957Z,46.73
2023-05-19T10:35:57.945Z,45.82
2023-05-19T10:36:57.878Z,46.22
2023-05-19T10:37:57.909Z,46.62
2023-05-19T10:38:57.874Z,44.81
2023-05-19T10:39:57.891Z,45.21
2023-05-19T10:40:57.858Z,45.32
2023-05-19T10:41:58.265Z,46.33
2023-05-19T10:42:57.819Z,44.51
2023-05-19T10:43:57.823Z,44.61
2023-05-19T10:44:57.806Z,44.79
2023-05-19T10:45:57.866Z,45.50
2023-05-19T10:46:57.837Z,45.50
2023-05-19T10:47:57.913Z,45.09
2023-05-19T10:48:57.779Z,45.29
2023-05-19T10:49:57.772Z,45.00
2023-05-19T10:50:57.745Z,44.87
2023-05-19T10:51:57.812Z,44.37
2023-05-19T10:52:57.714Z,45.47
2023-05-19T10:53:57.819Z,45.47
2023-05-19T10:54:57.795Z,45.47
2023-05-19T10:55:57.724Z,46.08
2023-05-19T10:56:57.655Z,45.37
2023-05-19T10:57:57.701Z,45.27
2023-05-19T10:58:57.654Z,45.87
2023-05-19T10:59:57.804Z,45.47
2023-05-19T11:00:57.669Z,44.57
2023-05-19T11:01:57.723Z,45.00
2023-05-19T11:02:57.665Z,45.59
2023-05-19T11:03:57.796Z,44.79
2023-05-19T11:04:57.596Z,45.19
2023-05-19T11:05:57.590Z,45.50
2023-05-19T11:06:57.817Z,44.39
2023-05-19T11:07:59.557Z,45.52
2023-05-19T11:08:57.541Z,45.82
2023-05-19T11:09:57.653Z,45.70
2023-05-19T11:10:59.472Z,45.19
2023-05-19T11:11:57.541Z,45.59
2023-05-19T11:12:58.333Z,45.59
2023-05-19T11:13:57.508Z,45.19
2023-05-19T11:14:57.473Z,45.87
2023-05-19T11:15:57.530Z,45.17
2023-05-19T11:16:57.635Z,45.19
2023-05-19T11:17:57.512Z,45.82
2023-05-19T11:18:57.487Z,45.72
2023-05-19T11:19:57.454Z,44.71
2023-05-19T11:20:57.403Z,44.61
2023-05-19T11:21:57.465Z,44.71
2023-05-19T11:22:57.455Z,45.64
2023-05-19T11:23:57.435Z,46.14
2023-05-19T11:24:57.368Z,46.33
2023-05-19T11:25:57.375Z,45.42
2023-05-19T11:26:57.331Z,44.61
2023-05-19T11:27:57.378Z,44.23
2023-05-19T11:28:57.302Z,44.75
2023-05-19T11:29:57.324Z,45.28
2023-05-19T11:30:57.333Z,45.97
2023-05-19T11:31:57.373Z,45.76
2023-05-19T11:32:57.297Z,45.14
2023-05-19T11:33:57.282Z,45.34
2023-05-19T11:34:57.235Z,45.82
2023-05-19T11:35:57.278Z,45.52
2023-05-19T11:36:57.226Z,45.12
2023-05-19T11:37:57.217Z,44.71
2023-05-19T11:38:57.186Z,45.01
2023-05-19T11:39:57.222Z,45.19
2023-05-19T11:40:57.182Z,45.39
2023-05-19T11:41:57.203Z,44.79
2023-05-19T11:42:57.137Z,44.09
2023-05-19T11:43:57.167Z,44.39
2023-05-19T11:44:57.137Z,43.48
2023-05-19T11:45:57.208Z,43.48
2023-05-19T11:46:57.128Z,43.59
2023-05-19T11:48:02.623Z,43.99
2023-05-19T11:48:58.096Z,44.89
2023-05-19T11:49:57.093Z,44.69
2023-05-19T11:50:57.105Z,45.12
2023-05-19T11:51:57.076Z,44.41
2023-05-19T11:52:57.058Z,45.01
2023-05-19T11:53:57.051Z,44.92
2023-05-19T11:54:57.708Z,46.25
2023-05-19T11:55:57.025Z,45.92
2023-05-19T11:56:56.994Z,45.70
2023-05-19T11:58:03.834Z,46.00
2023-05-19T11:58:57.975Z,45.79
2023-05-19T11:59:57.034Z,45.98
2023-05-19T12:00:56.950Z,45.98
2023-05-19T12:01:56.989Z,46.15
2023-05-19T12:02:57.724Z,45.03
2023-05-19T12:03:57.725Z,45.05
2023-05-19T12:04:56.926Z,45.45
2023-05-19T12:05:56.951Z,44.35
2023-05-19T12:06:56.887Z,45.05
2023-05-19T12:07:56.924Z,44.85
2023-05-19T12:08:56.862Z,45.35
2023-05-19T12:09:56.908Z,44.97
2023-05-19T12:10:56.860Z,44.47
2023-05-19T12:11:56.849Z,44.97
2023-05-19T12:12:56.817Z,44.85
2023-05-19T12:13:56.823Z,44.45
2023-05-19T12:14:56.796Z,43.95
2023-05-19T12:15:56.834Z,43.34
2023-05-19T12:16:56.759Z,42.84
2023-05-19T12:17:56.833Z,42.64
2023-05-19T12:18:56.797Z,42.94
2023-05-19T12:19:56.801Z,42.74
2023-05-19T12:20:56.713Z,43.54
2023-05-19T12:21:56.725Z,43.95
2023-05-19T12:22:56.737Z,44.35
2023-05-19T12:23:56.726Z,44.45
2023-05-19T12:24:56.716Z,45.05
2023-05-19T12:25:56.686Z,45.25
2023-05-19T12:26:56.643Z,44.85
2023-05-19T12:27:58.060Z,43.95
2023-05-19T12:28:56.636Z,44.65
2023-05-19T12:29:56.678Z,44.95
2023-05-19T12:30:56.620Z,45.05
2023-05-19T12:31:56.616Z,45.55
2023-05-19T12:32:56.725Z,44.65
2023-05-19T12:33:56.602Z,44.65
2023-05-19T12:34:56.584Z,44.15
2023-05-19T12:35:56.585Z,44.45
2023-05-19T12:36:56.562Z,43.84
2023-05-19T12:37:56.577Z,44.15
2023-05-19T12:38:56.540Z,44.12
2023-05-19T12:39:56.558Z,44.23
2023-05-19T12:40:56.518Z,44.32
2023-05-19T12:41:56.524Z,44.23
2023-05-19T12:42:56.485Z,44.71
2023-05-19T12:43:56.490Z,44.20
2023-05-19T12:44:56.448Z,43.80
2023-05-19T12:45:56.470Z,43.90
2023-05-19T12:46:56.438Z,43.80
2023-05-19T12:47:56.621Z,43.70
2023-05-19T12:48:56.414Z,43.60
2023-05-19T12:49:56.473Z,43.70
2023-05-19T12:50:57.357Z,43.90
2023-05-19T12:51:56.402Z,44.31